Motoplanete

Classement Grand Prix Red Bull d'Espagne Moto2 2015

Course disputée sur le circuit de Jerez de la Frontera

Position Numéro Pilote Team Temps Tours Points Départ
1 94 Jonas Folger Agr Team 07:31:13 26 25 3
2 5 Johann Zarco Ajo Motorsport 08:03:24 26 20 9
3 1 Tito Rabat Eg 0,0 Marc Vds 08:08:15 26 16 1
4 12 Thomas Luthi Derendinger Racing Interwetten 09:25:06 26 13 4
5 19 Xavier Simeon Federal Oil Gresini Moto2 10:35:59 26 11 10
6 21 Franco Morbidelli Italtrans Racing Team 10:59:12 26 10 14
7 39 Luis Salom Paginas Amarillas Hp 40 11:07:18 26 9 19
8 3 Simone Corsi Athinà Forward Racing 11:31:47 26 8 11
9 73 Alex Marquez Eg 0,0 Marc Vds 12:32:26 26 7 16
10 23 Marcel Schrotter Tech 3 13:37:11 26 6 13
11 60 Julian Simon QMMF Racing Team 13:39:59 26 5 30
12 55 Hafizh Syahrin Petronas Raceline Malaysia 14:33:32 26 4 20
13 7 Lorenzo Baldassarri Athinà Forward Racing 14:57:32 26 3 12
14 4 Randy Krummenacher Jir Racing Team 15:16:59 26 2 18
15 95 Anthony West QMMF Racing Team 16:05:46 26 1 23
16 77 Dominique Aegerter Technomag Racing Interwetten 16:58:19 26 0 15
17 30 Takaaki Nakagami Idemitsu Honda Team Asia 16:59:38 26 0 5
18 40 Alex Rins Paginas Amarillas Hp 40 17:24:01 26 0 2
19 57 Edgar Pons Paginas Amarillas Hp 40 17:57:43 26 0 22
20 22 Sam Lowes Speed Up 18:54:44 26 0 6
21 25 Azlan Shah Idemitsu Honda Team Asia 20:28:12 26 0 24
22 10 Thitipong Warokorn Aph Ptt The Pizza Sag 20:46:56 26 0 25
23 70 Robin Mulhauser Technomag Racing Interwetten 00:08:44 26 0 26
24 66 Florian Alt Octo Iodaracing Team 03:22:14 26 0 27
25 2 Jesko Raffin Sports-millions-emwe-sag 03:23:06 26 0 28
26 51 Zaqhwan Zaidi Jpmoto Malaysia 07:19:36 26 0 29
27 36 Mika Kallio Italtrans Racing Team 20:57:17 22 0 17
28 11 Sandro Cortese Dynavolt Intact Gp 09:23:33 14 0 7
29 88 Ricard Cardus Tech 3 17:20:03 12 0 21
30 49 Alex Pons Agr Team 04:13:08 5 0 8